createdAt,value
2022-10-21T00:00:53.107Z,1009.54
2022-10-21T00:01:53.084Z,1009.55
2022-10-21T00:02:53.087Z,1009.49
2022-10-21T00:03:53.113Z,1009.47
2022-10-21T00:04:53.060Z,1009.58
2022-10-21T00:05:53.069Z,1009.66
2022-10-21T00:06:53.083Z,1009.66
2022-10-21T00:07:53.050Z,1009.62
2022-10-21T00:08:53.092Z,1009.56
2022-10-21T00:09:53.057Z,1009.49
2022-10-21T00:10:53.014Z,1009.56
2022-10-21T00:11:53.025Z,1009.58
2022-10-21T00:12:52.972Z,1009.61
2022-10-21T00:13:52.979Z,1009.54
2022-10-21T00:14:56.345Z,1009.48
2022-10-21T00:15:52.935Z,1009.45
2022-10-21T00:16:52.945Z,1009.42
2022-10-21T00:17:52.916Z,1009.38
2022-10-21T00:18:52.954Z,1009.42
2022-10-21T00:19:52.904Z,1009.54
2022-10-21T00:20:52.892Z,1009.50
2022-10-21T00:21:52.903Z,1009.61
2022-10-21T00:22:52.863Z,1009.66
2022-10-21T00:23:52.847Z,1009.73
2022-10-21T00:24:52.836Z,1009.69
2022-10-21T00:25:52.840Z,1009.59
2022-10-21T00:26:52.825Z,1009.67
2022-10-21T00:27:52.800Z,1009.70
2022-10-21T00:28:52.801Z,1009.75
2022-10-21T00:29:52.786Z,1009.76
2022-10-21T00:30:52.776Z,1009.79
2022-10-21T00:31:52.770Z,1009.79
2022-10-21T00:32:52.756Z,1009.84
2022-10-21T00:33:52.745Z,1009.89
2022-10-21T00:34:52.735Z,1009.91
2022-10-21T00:35:52.714Z,1009.86
2022-10-21T00:36:52.722Z,1009.87
2022-10-21T00:37:52.697Z,1009.89
2022-10-21T00:38:52.692Z,1009.89
2022-10-21T00:39:52.671Z,1009.82
2022-10-21T00:40:52.662Z,1009.85
2022-10-21T00:41:52.711Z,1009.92
2022-10-21T00:42:52.639Z,1009.89
2022-10-21T00:43:52.637Z,1009.84
2022-10-21T00:44:52.632Z,1009.85
2022-10-21T00:45:52.616Z,1009.87
2022-10-21T00:46:52.596Z,1009.86
2022-10-21T00:47:52.609Z,1009.85
2022-10-21T00:48:52.574Z,1009.79
2022-10-21T00:49:52.561Z,1009.80
2022-10-21T00:50:52.553Z,1009.79
2022-10-21T00:51:52.554Z,1009.81
2022-10-21T00:52:52.554Z,1009.78
2022-10-21T00:53:52.519Z,1009.77
2022-10-21T00:54:52.510Z,1009.80
2022-10-21T00:55:52.503Z,1009.79
2022-10-21T00:57:52.491Z,1009.74
2022-10-21T00:58:52.476Z,1009.79
2022-10-21T00:59:52.480Z,1009.75
2022-10-21T01:00:52.529Z,1009.71
2022-10-21T01:01:52.431Z,1009.65
2022-10-21T01:02:52.420Z,1009.63
2022-10-21T01:03:52.415Z,1009.58
2022-10-21T01:04:52.405Z,1009.57
2022-10-21T01:05:52.406Z,1009.53
2022-10-21T01:06:52.380Z,1009.55
2022-10-21T01:07:52.378Z,1009.50
2022-10-21T01:08:52.378Z,1009.48
2022-10-21T01:09:52.342Z,1009.37
2022-10-21T01:10:52.350Z,1009.34
2022-10-21T01:11:52.330Z,1009.31
2022-10-21T01:12:52.312Z,1009.34
2022-10-21T01:13:52.320Z,1009.33
2022-10-21T01:14:52.350Z,1009.35
2022-10-21T01:15:52.317Z,1009.39
2022-10-21T01:16:52.266Z,1009.42
2022-10-21T01:17:52.718Z,1009.42
2022-10-21T01:18:52.252Z,1009.37
2022-10-21T01:19:52.235Z,1009.39
2022-10-21T01:20:52.222Z,1009.40
2022-10-21T01:21:52.225Z,1009.38
2022-10-21T01:22:52.431Z,1009.35
2022-10-21T01:23:52.195Z,1009.32
2022-10-21T01:24:52.178Z,1009.36
2022-10-21T01:25:52.177Z,1009.27
2022-10-21T01:26:52.155Z,1009.28
2022-10-21T01:27:52.224Z,1009.28
2022-10-21T01:28:52.143Z,1009.25
2022-10-21T01:29:52.141Z,1009.24
2022-10-21T01:30:52.119Z,1009.17
2022-10-21T01:31:52.109Z,1009.17
2022-10-21T01:32:52.107Z,1009.15
2022-10-21T01:33:52.095Z,1009.18
2022-10-21T01:34:52.069Z,1009.15
2022-10-21T01:35:52.060Z,1009.08
2022-10-21T01:36:52.055Z,1009.00
2022-10-21T01:37:52.099Z,1009.00
2022-10-21T01:38:52.045Z,1009.01
2022-10-21T01:39:52.023Z,1009.02
2022-10-21T01:40:52.002Z,1008.99
2022-10-21T01:41:52.001Z,1009.03
2022-10-21T01:42:51.990Z,1009.04
2022-10-21T01:43:51.986Z,1009.09
2022-10-21T01:44:51.969Z,1009.09
2022-10-21T01:45:51.971Z,1009.11
2022-10-21T01:46:51.948Z,1009.11
2022-10-21T01:47:51.939Z,1009.09
2022-10-21T01:48:51.923Z,1009.08
2022-10-21T01:49:51.921Z,1009.05
2022-10-21T01:50:51.900Z,1009.00
2022-10-21T01:51:51.893Z,1008.98
2022-10-21T01:52:51.874Z,1009.00
2022-10-21T01:53:51.868Z,1008.96
2022-10-21T01:54:51.882Z,1008.94
2022-10-21T01:55:51.838Z,1008.96
2022-10-21T01:56:51.830Z,1008.91
2022-10-21T01:57:51.820Z,1008.92
2022-10-21T01:58:51.815Z,1008.86
2022-10-21T01:59:51.804Z,1008.81
2022-10-21T02:00:51.846Z,1008.81
2022-10-21T02:01:51.804Z,1008.79
2022-10-21T02:02:51.769Z,1008.76
2022-10-21T02:03:51.749Z,1008.76
2022-10-21T02:04:51.746Z,1008.77
2022-10-21T02:05:51.738Z,1008.76
2022-10-21T02:06:51.735Z,1008.70
2022-10-21T02:07:51.708Z,1008.68
2022-10-21T02:08:51.780Z,1008.64
2022-10-21T02:09:51.694Z,1008.54
2022-10-21T02:10:51.682Z,1008.55
2022-10-21T02:11:51.672Z,1008.42
2022-10-21T02:12:51.672Z,1008.43
2022-10-21T02:13:51.643Z,1008.43
2022-10-21T02:14:51.631Z,1008.40
2022-10-21T02:15:51.628Z,1008.41
2022-10-21T02:16:51.653Z,1008.35
2022-10-21T02:17:51.612Z,1008.38
2022-10-21T02:18:51.618Z,1008.34
2022-10-21T02:19:51.582Z,1008.29
2022-10-21T02:20:51.564Z,1008.29
2022-10-21T02:21:51.555Z,1008.27
2022-10-21T02:22:51.550Z,1008.25
2022-10-21T02:23:51.542Z,1008.23
2022-10-21T02:24:51.566Z,1008.23
2022-10-21T02:25:51.510Z,1008.27
2022-10-21T02:26:51.537Z,1008.23
2022-10-21T02:27:51.496Z,1008.31
2022-10-21T02:28:51.480Z,1008.34
2022-10-21T02:29:51.475Z,1008.33
2022-10-21T02:30:51.469Z,1008.33
2022-10-21T02:31:51.457Z,1008.32
2022-10-21T02:32:51.450Z,1008.36
2022-10-21T02:33:51.437Z,1008.36
2022-10-21T02:34:51.413Z,1008.41
2022-10-21T02:35:51.410Z,1008.45
2022-10-21T02:36:51.403Z,1008.43
2022-10-21T02:37:51.420Z,1008.42
2022-10-21T02:38:51.370Z,1008.41
2022-10-21T02:39:51.358Z,1008.35
2022-10-21T02:40:51.357Z,1008.30
2022-10-21T02:41:51.334Z,1008.28
2022-10-21T02:42:51.323Z,1008.23
2022-10-21T02:43:51.334Z,1008.23
2022-10-21T02:44:51.312Z,1008.16
2022-10-21T02:45:51.298Z,1008.18
2022-10-21T02:46:51.293Z,1008.23
2022-10-21T02:47:51.278Z,1008.21
2022-10-21T02:48:51.266Z,1008.14
2022-10-21T02:49:51.291Z,1008.13
2022-10-21T02:50:51.245Z,1008.10
2022-10-21T02:51:51.235Z,1008.08
2022-10-21T02:52:51.213Z,1008.04
2022-10-21T02:53:51.246Z,1007.98
2022-10-21T02:54:51.193Z,1007.94
2022-10-21T02:55:51.182Z,1007.93
2022-10-21T02:56:51.180Z,1007.86
2022-10-21T02:57:51.159Z,1007.82
2022-10-21T02:58:51.156Z,1007.78
2022-10-21T02:59:51.162Z,1007.78
2022-10-21T03:00:51.156Z,1007.73
2022-10-21T03:01:51.127Z,1007.67
2022-10-21T03:02:51.107Z,1007.68
2022-10-21T03:03:51.102Z,1007.68
2022-10-21T03:04:51.107Z,1007.73
2022-10-21T03:05:51.094Z,1007.70
2022-10-21T03:06:51.066Z,1007.76
2022-10-21T03:07:51.051Z,1007.74
2022-10-21T03:08:51.077Z,1007.77
2022-10-21T03:09:51.049Z,1007.79
2022-10-21T03:10:53.192Z,1007.77
2022-10-21T03:11:51.023Z,1007.75
2022-10-21T03:12:51.001Z,1007.80
2022-10-21T03:13:50.989Z,1007.85
2022-10-21T03:14:50.981Z,1007.91
2022-10-21T03:15:50.969Z,1007.84
2022-10-21T03:16:50.954Z,1007.85
2022-10-21T03:17:50.967Z,1007.89
2022-10-21T03:18:50.938Z,1007.87
2022-10-21T03:19:50.922Z,1007.85
2022-10-21T03:20:50.938Z,1007.85
2022-10-21T03:21:50.913Z,1007.83
2022-10-21T03:22:50.888Z,1007.81
2022-10-21T03:23:50.874Z,1007.83
2022-10-21T03:24:50.873Z,1007.88
2022-10-21T03:25:50.865Z,1007.84
2022-10-21T03:26:50.865Z,1007.85
2022-10-21T03:27:50.850Z,1007.94
2022-10-21T03:28:50.831Z,1007.91
2022-10-21T03:29:50.819Z,1007.90
2022-10-21T03:30:50.807Z,1007.92
2022-10-21T03:31:50.814Z,1007.90
2022-10-21T03:32:50.781Z,1007.90
2022-10-21T03:33:50.770Z,1007.92
2022-10-21T03:34:50.772Z,1007.96
2022-10-21T03:35:50.771Z,1007.98
2022-10-21T03:36:50.751Z,1007.92
2022-10-21T03:37:50.788Z,1007.91
2022-10-21T03:38:50.711Z,1007.80
2022-10-21T03:39:50.717Z,1007.75
2022-10-21T03:40:50.705Z,1007.78
2022-10-21T03:41:50.686Z,1007.78
2022-10-21T03:42:50.706Z,1007.80
2022-10-21T03:43:50.666Z,1007.78
2022-10-21T03:44:50.660Z,1007.77
2022-10-21T03:45:50.664Z,1007.86
2022-10-21T03:46:50.627Z,1007.89
2022-10-21T03:47:50.627Z,1007.87
2022-10-21T03:48:50.606Z,1007.82
2022-10-21T03:49:50.595Z,1007.79
2022-10-21T03:50:50.580Z,1007.82
2022-10-21T03:51:50.593Z,1007.86
2022-10-21T03:52:50.567Z,1007.87
2022-10-21T03:53:50.567Z,1007.92
2022-10-21T03:54:50.538Z,1007.90
2022-10-21T03:55:54.276Z,1007.90
2022-10-21T03:56:51.526Z,1007.89
2022-10-21T03:57:50.530Z,1007.86
2022-10-21T03:58:52.978Z,1007.88
2022-10-21T03:59:50.483Z,1007.86
2022-10-21T04:00:50.476Z,1007.82
2022-10-21T04:01:50.565Z,1007.89
2022-10-21T04:02:50.461Z,1007.85
2022-10-21T04:03:50.449Z,1007.87
2022-10-21T04:04:50.438Z,1007.85
2022-10-21T04:05:50.422Z,1007.80
2022-10-21T04:06:50.408Z,1007.85
2022-10-21T04:07:53.011Z,1007.81
2022-10-21T04:08:50.452Z,1007.78
2022-10-21T04:09:50.392Z,1007.76
2022-10-21T04:10:50.424Z,1007.75
2022-10-21T04:11:50.352Z,1007.73
2022-10-21T04:12:50.341Z,1007.60
2022-10-21T04:13:50.355Z,1007.58
2022-10-21T04:14:50.331Z,1007.58
2022-10-21T04:15:50.315Z,1007.55
2022-10-21T04:16:53.619Z,1007.54
2022-10-21T04:17:51.296Z,1007.47
2022-10-21T04:18:50.274Z,1007.44
2022-10-21T04:19:50.292Z,1007.49
2022-10-21T04:20:50.263Z,1007.47
2022-10-21T04:21:50.255Z,1007.45
2022-10-21T04:22:50.238Z,1007.42
2022-10-21T04:23:50.233Z,1007.43
2022-10-21T04:24:50.209Z,1007.39
2022-10-21T04:25:50.226Z,1007.36
2022-10-21T04:26:50.192Z,1007.32
2022-10-21T04:27:50.186Z,1007.22
2022-10-21T04:28:50.167Z,1007.15
2022-10-21T04:29:50.174Z,1007.06
2022-10-21T04:30:50.155Z,1007.09
2022-10-21T04:31:50.167Z,1007.07
2022-10-21T04:32:50.132Z,1007.11
2022-10-21T04:33:50.108Z,1007.10
2022-10-21T04:34:50.101Z,1007.13
2022-10-21T04:35:50.116Z,1007.10
2022-10-21T04:36:50.086Z,1007.04
2022-10-21T04:37:50.069Z,1006.99
2022-10-21T04:38:50.066Z,1007.04
2022-10-21T04:39:50.048Z,1006.99
2022-10-21T04:40:50.039Z,1007.01
2022-10-21T04:41:50.087Z,1007.00
2022-10-21T04:42:50.030Z,1007.05
2022-10-21T04:43:50.004Z,1007.06
2022-10-21T04:44:49.992Z,1007.02
2022-10-21T04:45:49.986Z,1006.96
2022-10-21T04:46:49.981Z,1006.94
2022-10-21T04:47:49.968Z,1006.93
2022-10-21T04:48:49.967Z,1006.94
2022-10-21T04:49:49.939Z,1006.92
2022-10-21T04:50:49.934Z,1006.98
2022-10-21T04:51:49.927Z,1006.95
2022-10-21T04:52:49.910Z,1006.94
2022-10-21T04:53:49.920Z,1006.92
2022-10-21T04:54:49.893Z,1006.99
2022-10-21T04:55:49.876Z,1006.96
2022-10-21T04:56:49.869Z,1006.94
2022-10-21T04:57:49.873Z,1006.92
2022-10-21T04:58:49.845Z,1006.89
2022-10-21T04:59:49.845Z,1006.80
2022-10-21T05:00:49.882Z,1006.84
2022-10-21T05:01:49.855Z,1006.88
2022-10-21T05:02:49.803Z,1006.82
2022-10-21T05:03:49.806Z,1006.89
2022-10-21T05:04:49.773Z,1006.83
2022-10-21T05:05:49.764Z,1006.82
2022-10-21T05:06:49.786Z,1006.76
2022-10-21T05:07:49.745Z,1006.77
2022-10-21T05:08:49.779Z,1006.68
2022-10-21T05:09:49.718Z,1006.63
2022-10-21T05:10:49.726Z,1006.55
2022-10-21T05:11:49.705Z,1006.60
2022-10-21T05:12:49.687Z,1006.54
2022-10-21T05:13:49.692Z,1006.49
2022-10-21T05:14:49.689Z,1006.48
2022-10-21T05:15:49.660Z,1006.49
2022-10-21T05:16:49.646Z,1006.51
2022-10-21T05:17:49.631Z,1006.49
2022-10-21T05:18:49.621Z,1006.57
2022-10-21T05:19:49.623Z,1006.61
2022-10-21T05:20:49.653Z,1006.62
2022-10-21T05:21:49.628Z,1006.61
2022-10-21T05:22:49.578Z,1006.67
2022-10-21T05:23:49.570Z,1006.63
2022-10-21T05:24:49.580Z,1006.62
2022-10-21T05:25:49.558Z,1006.64
2022-10-21T05:26:49.544Z,1006.60
2022-10-21T05:27:49.523Z,1006.58
2022-10-21T05:28:49.513Z,1006.57
2022-10-21T05:29:49.514Z,1006.54
2022-10-21T05:30:49.508Z,1006.55
2022-10-21T05:31:49.482Z,1006.51
2022-10-21T05:32:49.472Z,1006.48
2022-10-21T05:33:49.461Z,1006.49
2022-10-21T05:34:49.455Z,1006.53
2022-10-21T05:35:49.442Z,1006.56
2022-10-21T05:36:49.432Z,1006.51
2022-10-21T05:37:49.432Z,1006.49
2022-10-21T05:38:49.401Z,1006.52
2022-10-21T05:39:49.398Z,1006.52
2022-10-21T05:40:49.396Z,1006.47
2022-10-21T05:41:49.379Z,1006.45
2022-10-21T05:42:49.365Z,1006.46
2022-10-21T05:43:49.346Z,1006.42
2022-10-21T05:44:49.349Z,1006.44
2022-10-21T05:45:49.353Z,1006.37
2022-10-21T05:46:49.340Z,1006.43
2022-10-21T05:47:57.312Z,1006.40
2022-10-21T05:48:49.302Z,1006.47
2022-10-21T05:49:49.283Z,1006.40
2022-10-21T05:50:49.278Z,1006.36
2022-10-21T05:51:49.271Z,1006.35
2022-10-21T05:52:49.289Z,1006.33
2022-10-21T05:53:49.246Z,1006.31
2022-10-21T05:54:49.236Z,1006.32
2022-10-21T05:55:49.224Z,1006.37
2022-10-21T05:56:49.214Z,1006.33
2022-10-21T05:57:49.235Z,1006.29
2022-10-21T05:58:49.196Z,1006.30
2022-10-21T05:59:49.186Z,1006.33
2022-10-21T06:00:49.263Z,1006.28
2022-10-21T06:01:49.171Z,1006.26
2022-10-21T06:02:49.177Z,1006.24
2022-10-21T06:03:49.130Z,1006.25
2022-10-21T06:04:49.124Z,1006.30
2022-10-21T06:05:49.114Z,1006.27
2022-10-21T06:06:49.175Z,1006.31
2022-10-21T06:07:49.085Z,1006.32
2022-10-21T06:08:49.126Z,1006.31
2022-10-21T06:09:49.063Z,1006.38
2022-10-21T06:10:49.055Z,1006.32
2022-10-21T06:11:49.070Z,1006.33
2022-10-21T06:12:49.056Z,1006.33
2022-10-21T06:13:49.020Z,1006.30
2022-10-21T06:14:49.017Z,1006.38
2022-10-21T06:15:51.116Z,1006.34
2022-10-21T06:16:49.000Z,1006.36
2022-10-21T06:17:49.013Z,1006.34
2022-10-21T06:18:48.968Z,1006.40
2022-10-21T06:19:50.938Z,1006.43
2022-10-21T06:20:48.965Z,1006.36
2022-10-21T06:21:48.942Z,1006.37
2022-10-21T06:22:48.935Z,1006.43
2022-10-21T06:23:48.943Z,1006.44
2022-10-21T06:24:48.909Z,1006.52
2022-10-21T06:25:48.890Z,1006.52
2022-10-21T06:26:48.884Z,1006.52
2022-10-21T06:27:48.879Z,1006.44
2022-10-21T06:28:48.871Z,1006.48
2022-10-21T06:29:48.856Z,1006.44
2022-10-21T06:30:48.837Z,1006.51
2022-10-21T06:31:48.832Z,1006.46
2022-10-21T06:32:48.827Z,1006.43
2022-10-21T06:33:49.022Z,1006.39
2022-10-21T06:34:48.795Z,1006.32
2022-10-21T06:35:48.784Z,1006.33
2022-10-21T06:36:48.771Z,1006.37
2022-10-21T06:37:48.773Z,1006.37
2022-10-21T06:38:48.755Z,1006.36
2022-10-21T06:39:48.758Z,1006.46
2022-10-21T06:40:48.755Z,1006.45
2022-10-21T06:41:48.720Z,1006.46
2022-10-21T06:42:48.703Z,1006.48
2022-10-21T06:43:48.700Z,1006.52
2022-10-21T06:44:48.722Z,1006.51
2022-10-21T06:45:48.689Z,1006.54
2022-10-21T06:46:48.664Z,1006.48
2022-10-21T06:47:48.650Z,1006.57
2022-10-21T06:48:48.643Z,1006.53
2022-10-21T06:49:48.658Z,1006.55
2022-10-21T06:50:48.637Z,1006.58
2022-10-21T06:51:48.608Z,1006.50
2022-10-21T06:52:48.611Z,1006.51
2022-10-21T06:53:48.591Z,1006.47
2022-10-21T06:54:48.584Z,1006.43
2022-10-21T06:55:48.606Z,1006.40
2022-10-21T06:56:48.563Z,1006.44
2022-10-21T06:57:48.558Z,1006.44
2022-10-21T06:58:48.528Z,1006.42
2022-10-21T06:59:48.528Z,1006.45
2022-10-21T07:00:48.518Z,1006.48
2022-10-21T07:01:59.879Z,1006.47
2022-10-21T07:02:49.482Z,1006.49
2022-10-21T07:03:48.479Z,1006.58
2022-10-21T07:04:48.466Z,1006.56
2022-10-21T07:05:48.490Z,1006.52
2022-10-21T07:06:48.457Z,1006.51
2022-10-21T07:07:48.443Z,1006.44
2022-10-21T07:08:58.023Z,1006.43
2022-10-21T07:09:49.492Z,1006.45
2022-10-21T07:10:48.407Z,1006.42
2022-10-21T07:11:48.410Z,1006.45
2022-10-21T07:12:48.378Z,1006.47
2022-10-21T07:13:48.376Z,1006.46
2022-10-21T07:14:48.353Z,1006.45
2022-10-21T07:15:48.372Z,1006.49
2022-10-21T07:16:48.366Z,1006.55
2022-10-21T07:17:48.337Z,1006.58
2022-10-21T07:18:48.314Z,1006.61
2022-10-21T07:19:48.313Z,1006.64
2022-10-21T07:20:48.301Z,1006.61
2022-10-21T07:21:48.301Z,1006.66
2022-10-21T07:22:53.162Z,1006.68
2022-10-21T07:23:48.842Z,1006.65
2022-10-21T07:24:48.285Z,1006.64
2022-10-21T07:25:48.251Z,1006.61
2022-10-21T07:26:48.240Z,1006.63
2022-10-21T07:27:48.475Z,1006.59
2022-10-21T07:28:48.211Z,1006.56
2022-10-21T07:29:48.199Z,1006.61
2022-10-21T07:30:48.201Z,1006.60
2022-10-21T07:31:48.171Z,1006.62
2022-10-21T07:32:48.184Z,1006.64
2022-10-21T07:33:48.252Z,1006.70
2022-10-21T07:34:48.147Z,1006.68
2022-10-21T07:35:48.129Z,1006.67
2022-10-21T07:36:48.145Z,1006.70
2022-10-21T07:37:48.121Z,1006.66
2022-10-21T07:38:48.106Z,1006.61
2022-10-21T07:39:48.093Z,1006.64
2022-10-21T07:40:48.088Z,1006.62
2022-10-21T07:41:48.101Z,1006.59
2022-10-21T07:42:48.073Z,1006.61
2022-10-21T07:43:48.063Z,1006.61
2022-10-21T07:44:48.036Z,1006.61
2022-10-21T07:45:48.025Z,1006.56
2022-10-21T07:46:48.005Z,1006.52
2022-10-21T07:47:48.007Z,1006.54
2022-10-21T07:48:48.005Z,1006.56
2022-10-21T07:49:47.992Z,1006.56
2022-10-21T07:50:47.969Z,1006.50
2022-10-21T07:51:47.994Z,1006.51
2022-10-21T07:52:55.990Z,1006.52
2022-10-21T07:53:48.973Z,1006.58
2022-10-21T07:54:47.943Z,1006.59
2022-10-21T07:55:47.917Z,1006.65
2022-10-21T07:56:47.907Z,1006.68
2022-10-21T07:57:47.901Z,1006.65
2022-10-21T07:58:47.880Z,1006.61
2022-10-21T07:59:47.892Z,1006.56
2022-10-21T08:00:47.912Z,1006.59
2022-10-21T08:02:47.843Z,1006.50
2022-10-21T08:03:47.830Z,1006.48
2022-10-21T08:04:47.824Z,1006.50
2022-10-21T08:05:47.812Z,1006.49
2022-10-21T08:06:47.797Z,1006.51
2022-10-21T08:07:47.787Z,1006.57
2022-10-21T08:08:47.798Z,1006.64
2022-10-21T08:09:47.789Z,1006.58
2022-10-21T08:10:47.763Z,1006.59
2022-10-21T08:11:47.801Z,1006.62
2022-10-21T08:12:47.730Z,1006.72
2022-10-21T08:13:47.726Z,1006.62
2022-10-21T08:14:47.707Z,1006.63
2022-10-21T08:15:47.696Z,1006.58
2022-10-21T08:16:47.688Z,1006.53
2022-10-21T08:17:47.702Z,1006.57
2022-10-21T08:18:47.666Z,1006.58
2022-10-21T08:19:47.688Z,1006.52
2022-10-21T08:20:47.643Z,1006.59
2022-10-21T08:21:47.636Z,1006.57
2022-10-21T08:22:47.632Z,1006.59
2022-10-21T08:23:47.659Z,1006.50
2022-10-21T08:24:47.592Z,1006.54
2022-10-21T08:25:47.596Z,1006.48
2022-10-21T08:26:47.586Z,1006.42
2022-10-21T08:27:47.564Z,1006.42
2022-10-21T08:28:47.617Z,1006.45
2022-10-21T08:29:47.573Z,1006.39
2022-10-21T08:30:47.535Z,1006.38
2022-10-21T08:31:47.528Z,1006.37
2022-10-21T08:32:47.507Z,1006.40
2022-10-21T08:33:47.533Z,1006.38
2022-10-21T08:34:47.488Z,1006.34
2022-10-21T08:35:47.481Z,1006.30
2022-10-21T08:36:47.467Z,1006.31
2022-10-21T08:37:47.472Z,1006.31
2022-10-21T08:38:48.362Z,1006.26
2022-10-21T08:39:47.429Z,1006.31
2022-10-21T08:40:49.177Z,1006.30
2022-10-21T08:41:47.476Z,1006.34
2022-10-21T08:42:47.512Z,1006.29
2022-10-21T08:43:47.941Z,1006.31
2022-10-21T08:44:47.516Z,1006.31
2022-10-21T08:45:47.369Z,1006.25
2022-10-21T08:46:47.371Z,1006.18
2022-10-21T08:47:47.364Z,1006.22
2022-10-21T08:48:47.344Z,1006.23
2022-10-21T08:49:47.874Z,1006.24
2022-10-21T08:50:47.310Z,1006.25
2022-10-21T08:51:47.296Z,1006.27
2022-10-21T08:52:47.890Z,1006.22
2022-10-21T08:53:47.275Z,1006.21
2022-10-21T08:54:47.304Z,1006.22
2022-10-21T08:55:47.253Z,1006.23
2022-10-21T08:56:47.250Z,1006.17
2022-10-21T08:57:47.268Z,1006.16
2022-10-21T08:58:47.234Z,1006.18
2022-10-21T08:59:47.233Z,1006.19
2022-10-21T09:00:47.202Z,1006.20
2022-10-21T09:01:47.234Z,1006.14
2022-10-21T09:02:47.258Z,1006.19
2022-10-21T09:03:47.184Z,1006.15
2022-10-21T09:04:47.155Z,1006.13
2022-10-21T09:05:47.144Z,1006.11
2022-10-21T09:06:47.583Z,1006.10
2022-10-21T09:07:47.142Z,1006.00
2022-10-21T09:08:47.176Z,1006.02
2022-10-21T09:09:47.110Z,1006.00
2022-10-21T09:10:47.086Z,1006.00
2022-10-21T09:11:47.089Z,1006.01
2022-10-21T09:12:47.076Z,1005.94
2022-10-21T09:13:47.077Z,1005.96
2022-10-21T09:14:47.115Z,1005.96
2022-10-21T09:15:47.043Z,1005.92
2022-10-21T09:16:47.050Z,1005.91
2022-10-21T09:17:47.032Z,1005.87
2022-10-21T09:18:47.009Z,1005.96
2022-10-21T09:19:47.030Z,1005.95
2022-10-21T09:20:46.984Z,1005.98
2022-10-21T09:21:47.007Z,1005.92
2022-10-21T09:22:46.954Z,1005.92
2022-10-21T09:23:46.949Z,1005.90
2022-10-21T09:24:46.955Z,1005.87
2022-10-21T09:25:46.949Z,1005.85
2022-10-21T09:26:46.916Z,1005.87
2022-10-21T09:27:57.544Z,1005.83
2022-10-21T09:28:47.905Z,1005.82
2022-10-21T09:29:46.915Z,1005.85
2022-10-21T09:30:46.922Z,1005.84
2022-10-21T09:31:50.237Z,1005.87
2022-10-21T09:32:47.879Z,1005.92
2022-10-21T09:33:46.857Z,1005.95
2022-10-21T09:34:47.523Z,1005.93
2022-10-21T09:35:46.820Z,1005.91
2022-10-21T09:36:46.829Z,1005.90
2022-10-21T09:37:46.798Z,1005.87
2022-10-21T09:38:46.847Z,1005.85
2022-10-21T09:39:46.776Z,1005.84
2022-10-21T09:40:46.770Z,1005.81
2022-10-21T09:41:46.794Z,1005.79
2022-10-21T09:42:48.061Z,1005.73
2022-10-21T09:43:46.731Z,1005.81
2022-10-21T09:44:46.724Z,1005.80
2022-10-21T09:45:46.761Z,1005.82
2022-10-21T09:46:46.718Z,1005.84
2022-10-21T09:47:46.786Z,1005.84
2022-10-21T09:49:16.394Z,1005.86
2022-10-21T09:50:06.264Z,1005.88
2022-10-21T09:50:47.669Z,1005.90
2022-10-21T09:51:46.692Z,1005.91
2022-10-21T09:52:46.630Z,1005.88
2022-10-21T09:53:53.630Z,1005.90
2022-10-21T09:54:46.602Z,1005.86
2022-10-21T09:55:46.590Z,1005.90
2022-10-21T09:56:46.615Z,1005.90
2022-10-21T09:57:46.575Z,1005.90
2022-10-21T09:58:46.601Z,1005.90
2022-10-21T09:59:46.573Z,1005.87
2022-10-21T10:00:46.547Z,1005.91
2022-10-21T10:01:46.712Z,1005.87
2022-10-21T10:02:46.529Z,1005.86
2022-10-21T10:03:46.507Z,1005.88
2022-10-21T10:04:46.521Z,1005.82
2022-10-21T10:05:46.490Z,1005.82
2022-10-21T10:06:46.503Z,1005.88
2022-10-21T10:07:46.469Z,1005.86
2022-10-21T10:08:46.562Z,1005.83
2022-10-21T10:09:46.463Z,1005.83
2022-10-21T10:10:46.440Z,1005.83
2022-10-21T10:11:46.463Z,1005.81
2022-10-21T10:12:46.404Z,1005.82
2022-10-21T10:13:46.408Z,1005.72
2022-10-21T10:14:46.421Z,1005.71
2022-10-21T10:15:46.379Z,1005.69
2022-10-21T10:16:46.386Z,1005.72
2022-10-21T10:17:46.396Z,1005.65
2022-10-21T10:18:46.366Z,1005.58
2022-10-21T10:19:46.336Z,1005.60
2022-10-21T10:20:46.343Z,1005.56
2022-10-21T10:21:46.311Z,1005.60
2022-10-21T10:22:46.306Z,1005.60
2022-10-21T10:23:46.291Z,1005.56
2022-10-21T10:24:46.274Z,1005.54
2022-10-21T10:25:46.489Z,1005.57
2022-10-21T10:26:46.409Z,1005.52
2022-10-21T10:27:46.242Z,1005.49
2022-10-21T10:28:46.229Z,1005.51
2022-10-21T10:29:46.219Z,1005.60
2022-10-21T10:30:46.210Z,1005.54
2022-10-21T10:31:46.217Z,1005.53
2022-10-21T10:32:46.184Z,1005.53
2022-10-21T10:33:46.286Z,1005.54
2022-10-21T10:34:46.188Z,1005.55
2022-10-21T10:35:46.169Z,1005.56
2022-10-21T10:36:46.209Z,1005.54
2022-10-21T10:37:46.143Z,1005.49
2022-10-21T10:38:46.150Z,1005.51
2022-10-21T10:39:46.119Z,1005.43
2022-10-21T10:40:46.107Z,1005.46
2022-10-21T10:41:46.123Z,1005.42
2022-10-21T10:42:46.086Z,1005.42
2022-10-21T10:43:46.066Z,1005.38
2022-10-21T10:44:46.050Z,1005.38
2022-10-21T10:45:46.038Z,1005.35
2022-10-21T10:47:46.036Z,1005.36
2022-10-21T10:48:46.007Z,1005.33
2022-10-21T10:49:46.121Z,1005.24
2022-10-21T10:50:45.988Z,1005.23
2022-10-21T10:51:45.985Z,1005.20
2022-10-21T10:52:45.976Z,1005.14
2022-10-21T10:53:45.957Z,1005.23
2022-10-21T10:54:46.910Z,1005.17
2022-10-21T10:55:46.020Z,1005.19
2022-10-21T10:56:45.943Z,1005.21
2022-10-21T10:57:58.454Z,1005.22
2022-10-21T10:58:46.895Z,1005.21
2022-10-21T10:59:45.887Z,1005.20
2022-10-21T11:00:45.945Z,1005.17
2022-10-21T11:01:45.885Z,1005.16
2022-10-21T11:02:45.852Z,1005.08
2022-10-21T11:03:45.858Z,1005.15
2022-10-21T11:04:45.920Z,1005.09
2022-10-21T11:05:45.941Z,1005.12
2022-10-21T11:06:45.814Z,1005.16
2022-10-21T11:07:45.854Z,1005.16
2022-10-21T11:08:45.875Z,1005.12
2022-10-21T11:09:45.776Z,1005.15
2022-10-21T11:10:45.805Z,1005.13
2022-10-21T11:11:45.773Z,1005.14
2022-10-21T11:12:45.749Z,1005.17
2022-10-21T11:13:45.737Z,1005.13
2022-10-21T11:14:45.730Z,1005.13
2022-10-21T11:15:45.711Z,1005.08
2022-10-21T11:16:59.423Z,1005.11
2022-10-21T11:17:46.695Z,1005.06
2022-10-21T11:18:49.446Z,1005.08
2022-10-21T11:19:45.664Z,1005.06
2022-10-21T11:20:45.656Z,1005.11
2022-10-21T11:21:45.787Z,1005.08
2022-10-21T11:22:45.635Z,1005.07
2022-10-21T11:23:45.633Z,1005.06
2022-10-21T11:24:45.619Z,1005.05
2022-10-21T11:25:45.602Z,1005.05
2022-10-21T11:26:45.669Z,1005.08
2022-10-21T11:27:45.590Z,1005.02
2022-10-21T11:28:45.570Z,1004.99
2022-10-21T11:29:45.575Z,1005.01
2022-10-21T11:30:45.540Z,1004.90
2022-10-21T11:32:06.674Z,1004.91
2022-10-21T11:32:46.537Z,1004.88
2022-10-21T11:33:45.518Z,1004.95
2022-10-21T11:34:45.509Z,1004.99
2022-10-21T11:35:45.497Z,1005.05
2022-10-21T11:36:45.485Z,1005.06
2022-10-21T11:37:45.590Z,1005.05
2022-10-21T11:38:45.459Z,1005.05
2022-10-21T11:39:45.444Z,1005.02
2022-10-21T11:40:45.439Z,1004.99
2022-10-21T11:41:45.420Z,1004.92
2022-10-21T11:42:45.419Z,1004.96
2022-10-21T11:43:45.416Z,1004.90
2022-10-21T11:44:45.389Z,1004.97
2022-10-21T11:45:45.376Z,1004.96
2022-10-21T11:46:45.383Z,1004.94
2022-10-21T11:47:45.364Z,1004.97
2022-10-21T11:48:45.361Z,1004.93
2022-10-21T11:49:45.358Z,1004.94
2022-10-21T11:50:45.329Z,1004.97
2022-10-21T11:51:45.318Z,1004.92
2022-10-21T11:52:45.333Z,1004.93
2022-10-21T11:53:45.498Z,1004.98
2022-10-21T11:55:02.019Z,1004.99
2022-10-21T11:55:46.276Z,1004.96
2022-10-21T11:56:45.268Z,1004.93
2022-10-21T11:57:45.259Z,1004.90
2022-10-21T11:58:45.238Z,1004.94
2022-10-21T11:59:48.198Z,1004.97
2022-10-21T12:00:46.235Z,1004.99
2022-10-21T12:01:45.223Z,1004.99
2022-10-21T12:02:45.303Z,1004.98
2022-10-21T12:03:45.218Z,1004.99
2022-10-21T12:04:45.178Z,1005.03
2022-10-21T12:05:45.176Z,1005.04
2022-10-21T12:06:45.225Z,1004.98
2022-10-21T12:07:45.159Z,1005.02
2022-10-21T12:08:46.178Z,1005.04